sensor_id;sensor_type;location;lat;lon;timestamp;pressure;altitude;pressure_sealevel;temperature;humidity
57442;BME280;43284;47.042;15.498;2023-05-20T00:00:29;97565.16;;;12.43;100.00
57442;BME280;43284;47.042;15.498;2023-05-20T00:02:55;97569.69;;;12.40;100.00
57442;BME280;43284;47.042;15.498;2023-05-20T00:05:22;97555.06;;;12.35;100.00
57442;BME280;43284;47.042;15.498;2023-05-20T00:07:47;97555.19;;;12.32;100.00
57442;BME280;43284;47.042;15.498;2023-05-20T00:10:13;97561.44;;;12.30;100.00
57442;BME280;43284;47.042;15.498;2023-05-20T00:12:39;97559.97;;;12.24;100.00
57442;BME280;43284;47.042;15.498;2023-05-20T00:15:05;97563.69;;;12.20;100.00
57442;BME280;43284;47.042;15.498;2023-05-20T00:17:31;97567.38;;;12.16;100.00
57442;BME280;43284;47.042;15.498;2023-05-20T00:19:56;97555.47;;;12.09;100.00
57442;BME280;43284;47.042;15.498;2023-05-20T00:22:22;97557.19;;;12.10;100.00
57442;BME280;43284;47.042;15.498;2023-05-20T00:24:47;97568.50;;;12.10;100.00
57442;BME280;43284;47.042;15.498;2023-05-20T00:27:13;97569.44;;;12.09;100.00
57442;BME280;43284;47.042;15.498;2023-05-20T00:29:38;97571.97;;;12.11;100.00
57442;BME280;43284;47.042;15.498;2023-05-20T00:32:04;97571.91;;;12.12;100.00
57442;BME280;43284;47.042;15.498;2023-05-20T00:34:30;97574.38;;;12.15;100.00
57442;BME280;43284;47.042;15.498;2023-05-20T00:36:55;97560.50;;;12.13;100.00
57442;BME280;43284;47.042;15.498;2023-05-20T00:39:21;97554.41;;;12.13;100.00
57442;BME280;43284;47.042;15.498;2023-05-20T00:41:46;97550.69;;;12.00;100.00
57442;BME280;43284;47.042;15.498;2023-05-20T00:44:12;97552.53;;;11.98;100.00
57442;BME280;43284;47.042;15.498;2023-05-20T00:46:37;97556.09;;;11.97;100.00
57442;BME280;43284;47.042;15.498;2023-05-20T00:49:03;97558.75;;;11.95;100.00
57442;BME280;43284;47.042;15.498;2023-05-20T00:51:29;97550.13;;;11.93;100.00
57442;BME280;43284;47.042;15.498;2023-05-20T00:53:55;97556.22;;;11.93;100.00
57442;BME280;43284;47.042;15.498;2023-05-20T00:56:21;97541.66;;;11.88;100.00
57442;BME280;43284;47.042;15.498;2023-05-20T00:58:48;97549.41;;;11.89;100.00
57442;BME280;43284;47.042;15.498;2023-05-20T01:01:14;97553.81;;;11.89;100.00
57442;BME280;43284;47.042;15.498;2023-05-20T01:03:39;97551.25;;;11.87;100.00
57442;BME280;43284;47.042;15.498;2023-05-20T01:06:05;97553.00;;;11.87;100.00
57442;BME280;43284;47.042;15.498;2023-05-20T01:08:31;97549.53;;;11.86;100.00
57442;BME280;43284;47.042;15.498;2023-05-20T01:14:02;97542.91;;;11.79;100.00
57442;BME280;43284;47.042;15.498;2023-05-20T01:16:31;97553.31;;;11.81;100.00
57442;BME280;43284;47.042;15.498;2023-05-20T01:18:58;97544.53;;;11.82;100.00
57442;BME280;43284;47.042;15.498;2023-05-20T01:21:26;97539.34;;;11.80;100.00
57442;BME280;43284;47.042;15.498;2023-05-20T01:23:54;97533.97;;;11.83;100.00
57442;BME280;43284;47.042;15.498;2023-05-20T01:26:20;97528.66;;;11.85;100.00
57442;BME280;43284;47.042;15.498;2023-05-20T01:28:46;97524.50;;;11.81;100.00
57442;BME280;43284;47.042;15.498;2023-05-20T01:31:19;97527.25;;;11.78;100.00
57442;BME280;43284;47.042;15.498;2023-05-20T01:33:51;97528.97;;;11.79;100.00
57442;BME280;43284;47.042;15.498;2023-05-20T01:36:19;97529.75;;;11.81;100.00
57442;BME280;43284;47.042;15.498;2023-05-20T01:38:47;97526.19;;;11.82;100.00
57442;BME280;43284;47.042;15.498;2023-05-20T01:41:13;97520.94;;;11.82;100.00
57442;BME280;43284;47.042;15.498;2023-05-20T01:43:39;97518.31;;;11.82;100.00
57442;BME280;43284;47.042;15.498;2023-05-20T01:46:05;97519.16;;;11.82;100.00
57442;BME280;43284;47.042;15.498;2023-05-20T01:48:31;97511.47;;;11.79;100.00
57442;BME280;43284;47.042;15.498;2023-05-20T01:50:57;97519.31;;;11.79;100.00
57442;BME280;43284;47.042;15.498;2023-05-20T01:53:22;97517.63;;;11.78;100.00
57442;BME280;43284;47.042;15.498;2023-05-20T01:55:48;97519.44;;;11.76;100.00
57442;BME280;43284;47.042;15.498;2023-05-20T01:58:13;97522.06;;;11.76;100.00
57442;BME280;43284;47.042;15.498;2023-05-20T02:00:39;97526.47;;;11.75;100.00
57442;BME280;43284;47.042;15.498;2023-05-20T02:03:04;97520.44;;;11.73;100.00
57442;BME280;43284;47.042;15.498;2023-05-20T02:05:30;97523.91;;;11.74;100.00
57442;BME280;43284;47.042;15.498;2023-05-20T02:07:55;97519.56;;;11.74;100.00
57442;BME280;43284;47.042;15.498;2023-05-20T02:10:21;97509.84;;;11.77;100.00
57442;BME280;43284;47.042;15.498;2023-05-20T02:12:46;97511.47;;;11.79;100.00
57442;BME280;43284;47.042;15.498;2023-05-20T02:15:13;97508.00;;;11.79;100.00
57442;BME280;43284;47.042;15.498;2023-05-20T02:17:39;97508.13;;;11.75;100.00
57442;BME280;43284;47.042;15.498;2023-05-20T02:20:05;97513.31;;;11.77;100.00
57442;BME280;43284;47.042;15.498;2023-05-20T02:22:32;97505.59;;;11.74;100.00
57442;BME280;43284;47.042;15.498;2023-05-20T02:24:57;97507.34;;;11.73;100.00
57442;BME280;43284;47.042;15.498;2023-05-20T02:27:23;97511.75;;;11.73;100.00
57442;BME280;43284;47.042;15.498;2023-05-20T02:29:48;97521.28;;;11.74;100.00
57442;BME280;43284;47.042;15.498;2023-05-20T02:32:14;97525.63;;;11.75;100.00
57442;BME280;43284;47.042;15.498;2023-05-20T02:34:39;97532.66;;;11.74;100.00
57442;BME280;43284;47.042;15.498;2023-05-20T02:37:05;97529.16;;;11.74;100.00
57442;BME280;43284;47.042;15.498;2023-05-20T02:39:30;97526.69;;;11.71;100.00
57442;BME280;43284;47.042;15.498;2023-05-20T02:41:56;97523.16;;;11.72;100.00
57442;BME280;43284;47.042;15.498;2023-05-20T02:44:21;97520.44;;;11.73;100.00
57442;BME280;43284;47.042;15.498;2023-05-20T02:46:47;97519.63;;;11.73;100.00
57442;BME280;43284;47.042;15.498;2023-05-20T02:49:12;97522.28;;;11.71;100.00
57442;BME280;43284;47.042;15.498;2023-05-20T02:51:39;97525.78;;;11.72;100.00
57442;BME280;43284;47.042;15.498;2023-05-20T02:54:05;97532.72;;;11.73;100.00
57442;BME280;43284;47.042;15.498;2023-05-20T02:56:30;97529.94;;;11.76;100.00
57442;BME280;43284;47.042;15.498;2023-05-20T02:58:56;97535.88;;;11.80;100.00
57442;BME280;43284;47.042;15.498;2023-05-20T03:01:22;97531.41;;;11.82;100.00
57442;BME280;43284;47.042;15.498;2023-05-20T03:03:47;97527.81;;;11.84;100.00
57442;BME280;43284;47.042;15.498;2023-05-20T03:06:13;97518.91;;;11.88;100.00
57442;BME280;43284;47.042;15.498;2023-05-20T03:08:39;97528.44;;;11.89;100.00
57442;BME280;43284;47.042;15.498;2023-05-20T03:11:07;97524.16;;;11.88;100.00
57442;BME280;43284;47.042;15.498;2023-05-20T03:13:32;97528.56;;;11.88;100.00
57442;BME280;43284;47.042;15.498;2023-05-20T03:15:59;97525.84;;;11.89;100.00
57442;BME280;43284;47.042;15.498;2023-05-20T03:18:25;97519.63;;;11.92;100.00
57442;BME280;43284;47.042;15.498;2023-05-20T03:20:51;97523.16;;;11.91;100.00
57442;BME280;43284;47.042;15.498;2023-05-20T03:23:16;97519.69;;;11.90;100.00
57442;BME280;43284;47.042;15.498;2023-05-20T03:25:42;97522.31;;;11.90;100.00
57442;BME280;43284;47.042;15.498;2023-05-20T03:28:07;97530.16;;;11.90;100.00
57442;BME280;43284;47.042;15.498;2023-05-20T03:30:33;97525.84;;;11.89;100.00
57442;BME280;43284;47.042;15.498;2023-05-20T03:32:59;97532.91;;;11.87;100.00
57442;BME280;43284;47.042;15.498;2023-05-20T03:35:27;97535.59;;;11.86;100.00
57442;BME280;43284;47.042;15.498;2023-05-20T03:37:52;97532.97;;;11.86;100.00
57442;BME280;43284;47.042;15.498;2023-05-20T03:40:18;97533.81;;;11.86;100.00
57442;BME280;43284;47.042;15.498;2023-05-20T03:42:47;97534.75;;;11.85;100.00
57442;BME280;43284;47.042;15.498;2023-05-20T03:45:14;97532.13;;;11.85;100.00
57442;BME280;43284;47.042;15.498;2023-05-20T03:47:39;97535.53;;;11.87;100.00
57442;BME280;43284;47.042;15.498;2023-05-20T03:50:05;97530.41;;;11.84;100.00
57442;BME280;43284;47.042;15.498;2023-05-20T03:52:31;97529.41;;;11.87;100.00
57442;BME280;43284;47.042;15.498;2023-05-20T03:54:57;97524.41;;;11.82;100.00
57442;BME280;43284;47.042;15.498;2023-05-20T03:57:23;97527.97;;;11.81;100.00
57442;BME280;43284;47.042;15.498;2023-05-20T03:59:48;97535.81;;;11.81;100.00
57442;BME280;43284;47.042;15.498;2023-05-20T04:02:14;97542.75;;;11.82;100.00
57442;BME280;43284;47.042;15.498;2023-05-20T04:04:39;97530.59;;;11.81;100.00
57442;BME280;43284;47.042;15.498;2023-05-20T04:07:07;97531.34;;;11.83;100.00
57442;BME280;43284;47.042;15.498;2023-05-20T04:09:33;97533.09;;;11.83;100.00
57442;BME280;43284;47.042;15.498;2023-05-20T04:11:58;97539.91;;;11.87;100.00
57442;BME280;43284;47.042;15.498;2023-05-20T04:14:24;97540.72;;;11.89;100.00
57442;BME280;43284;47.042;15.498;2023-05-20T04:16:49;97538.75;;;11.94;100.00
57442;BME280;43284;47.042;15.498;2023-05-20T04:19:15;97542.97;;;11.97;100.00
57442;BME280;43284;47.042;15.498;2023-05-20T04:21:43;97539.28;;;12.01;100.00
57442;BME280;43284;47.042;15.498;2023-05-20T04:24:09;97540.97;;;12.02;100.00
57442;BME280;43284;47.042;15.498;2023-05-20T04:26:35;97529.66;;;12.01;100.00
57442;BME280;43284;47.042;15.498;2023-05-20T04:29:01;97529.50;;;12.04;100.00
57442;BME280;43284;47.042;15.498;2023-05-20T04:31:29;97530.97;;;12.10;100.00
57442;BME280;43284;47.042;15.498;2023-05-20T04:33:55;97531.75;;;12.12;100.00
57442;BME280;43284;47.042;15.498;2023-05-20T04:36:21;97531.75;;;12.12;100.00
57442;BME280;43284;47.042;15.498;2023-05-20T04:38:47;97526.22;;;12.18;100.00
57442;BME280;43284;47.042;15.498;2023-05-20T04:41:13;97528.59;;;12.23;100.00
57442;BME280;43284;47.042;15.498;2023-05-20T04:43:40;97524.13;;;12.25;100.00
57442;BME280;43284;47.042;15.498;2023-05-20T04:46:06;97522.13;;;12.30;100.00
57442;BME280;43284;47.042;15.498;2023-05-20T04:48:32;97522.91;;;12.32;100.00
57442;BME280;43284;47.042;15.498;2023-05-20T04:50:58;97523.63;;;12.35;100.00
57442;BME280;43284;47.042;15.498;2023-05-20T04:53:24;97527.69;;;12.41;100.00
57442;BME280;43284;47.042;15.498;2023-05-20T04:55:52;97526.53;;;12.47;100.00
57442;BME280;43284;47.042;15.498;2023-05-20T04:58:18;97523.63;;;12.53;100.00
57442;BME280;43284;47.042;15.498;2023-05-20T05:00:44;97524.06;;;12.61;100.00
57442;BME280;43284;47.042;15.498;2023-05-20T05:03:11;97523.81;;;12.66;100.00
57442;BME280;43284;47.042;15.498;2023-05-20T05:05:39;97520.03;;;12.71;100.00
57442;BME280;43284;47.042;15.498;2023-05-20T05:08:07;97523.38;;;12.75;100.00
57442;BME280;43284;47.042;15.498;2023-05-20T05:10:33;97524.03;;;12.78;100.00
57442;BME280;43284;47.042;15.498;2023-05-20T05:13:00;97526.41;;;12.83;100.00
57442;BME280;43284;47.042;15.498;2023-05-20T05:15:26;97528.91;;;12.86;100.00
57442;BME280;43284;47.042;15.498;2023-05-20T05:17:51;97528.72;;;12.89;100.00
57442;BME280;43284;47.042;15.498;2023-05-20T05:20:17;97532.97;;;12.92;100.00
57442;BME280;43284;47.042;15.498;2023-05-20T05:22:43;97524.84;;;12.96;100.00
57442;BME280;43284;47.042;15.498;2023-05-20T05:25:09;97535.13;;;13.01;100.00
57442;BME280;43284;47.042;15.498;2023-05-20T05:27:35;97530.47;;;13.06;100.00
57442;BME280;43284;47.042;15.498;2023-05-20T05:30:01;97527.59;;;13.11;100.00
57442;BME280;43284;47.042;15.498;2023-05-20T05:32:27;97531.69;;;13.16;100.00
57442;BME280;43284;47.042;15.498;2023-05-20T05:34:53;97536.69;;;13.21;100.00
57442;BME280;43284;47.042;15.498;2023-05-20T05:37:19;97540.84;;;13.25;100.00
57442;BME280;43284;47.042;15.498;2023-05-20T05:39:44;97539.78;;;13.29;100.00
57442;BME280;43284;47.042;15.498;2023-05-20T05:42:10;97543.16;;;13.31;100.00
57442;BME280;43284;47.042;15.498;2023-05-20T05:44:35;97547.44;;;13.34;100.00
57442;BME280;43284;47.042;15.498;2023-05-20T05:47:01;97536.94;;;13.34;100.00
57442;BME280;43284;47.042;15.498;2023-05-20T05:49:26;97536.81;;;13.35;100.00
57442;BME280;43284;47.042;15.498;2023-05-20T05:51:52;97530.66;;;13.36;100.00
57442;BME280;43284;47.042;15.498;2023-05-20T05:54:17;97536.56;;;13.40;100.00
57442;BME280;43284;47.042;15.498;2023-05-20T05:56:45;97529.31;;;13.45;100.00
57442;BME280;43284;47.042;15.498;2023-05-20T05:59:11;97531.63;;;13.51;100.00
57442;BME280;43284;47.042;15.498;2023-05-20T06:01:36;97530.50;;;13.55;100.00
57442;BME280;43284;47.042;15.498;2023-05-20T06:04:02;97536.34;;;13.60;100.00
57442;BME280;43284;47.042;15.498;2023-05-20T06:06:27;97540.34;;;13.68;100.00
57442;BME280;43284;47.042;15.498;2023-05-20T06:08:53;97535.44;;;13.77;100.00
57442;BME280;43284;47.042;15.498;2023-05-20T06:11:19;97527.88;;;13.87;100.00
57442;BME280;43284;47.042;15.498;2023-05-20T06:13:45;97530.81;;;13.97;100.00
57442;BME280;43284;47.042;15.498;2023-05-20T06:16:11;97532.25;;;14.02;100.00
57442;BME280;43284;47.042;15.498;2023-05-20T06:18:36;97527.59;;;14.08;98.59
57442;BME280;43284;47.042;15.498;2023-05-20T06:21:03;97527.09;;;14.17;97.98
57442;BME280;43284;47.042;15.498;2023-05-20T06:23:29;97531.88;;;14.25;97.70
57442;BME280;43284;47.042;15.498;2023-05-20T06:25:58;97526.09;;;14.34;96.95
57442;BME280;43284;47.042;15.498;2023-05-20T06:28:25;97531.50;;;14.47;97.38
57442;BME280;43284;47.042;15.498;2023-05-20T06:30:50;97524.72;;;14.58;97.36
57442;BME280;43284;47.042;15.498;2023-05-20T06:33:18;97522.28;;;14.70;95.85
57442;BME280;43284;47.042;15.498;2023-05-20T06:35:44;97522.66;;;14.78;92.20
57442;BME280;43284;47.042;15.498;2023-05-20T06:38:10;97527.13;;;14.92;91.68
57442;BME280;43284;47.042;15.498;2023-05-20T06:40:35;97522.88;;;15.03;90.27
57442;BME280;43284;47.042;15.498;2023-05-20T06:43:01;97519.41;;;15.17;90.29
57442;BME280;43284;47.042;15.498;2023-05-20T06:45:26;97522.25;;;15.29;89.31
57442;BME280;43284;47.042;15.498;2023-05-20T06:47:52;97515.63;;;15.36;86.70
57442;BME280;43284;47.042;15.498;2023-05-20T06:50:18;97510.53;;;15.47;86.87
57442;BME280;43284;47.042;15.498;2023-05-20T06:52:44;97506.56;;;15.54;86.02
57442;BME280;43284;47.042;15.498;2023-05-20T06:55:10;97499.41;;;15.56;84.24
57442;BME280;43284;47.042;15.498;2023-05-20T06:57:35;97492.94;;;15.62;84.42
57442;BME280;43284;47.042;15.498;2023-05-20T07:00:03;97488.84;;;15.71;85.03
57442;BME280;43284;47.042;15.498;2023-05-20T07:02:31;97492.50;;;15.82;82.86
57442;BME280;43284;47.042;15.498;2023-05-20T07:04:57;97487.59;;;15.91;82.34
57442;BME280;43284;47.042;15.498;2023-05-20T07:07:23;97485.41;;;15.97;84.20
57442;BME280;43284;47.042;15.498;2023-05-20T07:09:48;97478.16;;;16.01;83.13
57442;BME280;43284;47.042;15.498;2023-05-20T07:12:13;97482.28;;;16.05;83.72
57442;BME280;43284;47.042;15.498;2023-05-20T07:14:39;97471.97;;;16.15;84.32
57442;BME280;43284;47.042;15.498;2023-05-20T07:17:05;97475.88;;;16.22;83.14
57442;BME280;43284;47.042;15.498;2023-05-20T07:19:30;97460.16;;;16.33;83.33
57442;BME280;43284;47.042;15.498;2023-05-20T07:21:56;97466.53;;;16.43;82.27
57442;BME280;43284;47.042;15.498;2023-05-20T07:24:21;97465.81;;;16.54;82.14
57442;BME280;43284;47.042;15.498;2023-05-20T07:26:47;97463.91;;;16.69;81.99
57442;BME280;43284;47.042;15.498;2023-05-20T07:29:12;97463.22;;;16.80;81.28
57442;BME280;43284;47.042;15.498;2023-05-20T07:31:38;97462.47;;;16.91;80.51
57442;BME280;43284;47.042;15.498;2023-05-20T07:34:03;97454.31;;;17.06;80.25
57442;BME280;43284;47.042;15.498;2023-05-20T07:36:29;97460.44;;;17.20;76.98
57442;BME280;43284;47.042;15.498;2023-05-20T07:38:55;97452.38;;;17.34;78.87
57442;BME280;43284;47.042;15.498;2023-05-20T07:41:21;97452.88;;;17.39;77.19
57442;BME280;43284;47.042;15.498;2023-05-20T07:43:46;97451.63;;;17.45;77.63
57442;BME280;43284;47.042;15.498;2023-05-20T07:46:12;97461.13;;;17.47;77.30
57442;BME280;43284;47.042;15.498;2023-05-20T07:48:38;97456.22;;;17.54;77.58
57442;BME280;43284;47.042;15.498;2023-05-20T07:51:03;97457.69;;;17.58;77.42
57442;BME280;43284;47.042;15.498;2023-05-20T07:53:29;97456.72;;;17.59;76.96
57442;BME280;43284;47.042;15.498;2023-05-20T07:55:54;97465.50;;;17.60;76.95
57442;BME280;43284;47.042;15.498;2023-05-20T07:58:20;97455.78;;;17.60;76.96
57442;BME280;43284;47.042;15.498;2023-05-20T08:00:46;97457.81;;;17.57;76.37
57442;BME280;43284;47.042;15.498;2023-05-20T08:03:13;97462.59;;;17.52;76.50
57442;BME280;43284;47.042;15.498;2023-05-20T08:05:40;97456.56;;;17.49;77.52
57442;BME280;43284;47.042;15.498;2023-05-20T08:08:05;97468.06;;;17.48;76.38
57442;BME280;43284;47.042;15.498;2023-05-20T08:10:30;97464.03;;;17.56;76.32
57442;BME280;43284;47.042;15.498;2023-05-20T08:12:56;97460.75;;;17.65;76.40
57442;BME280;43284;47.042;15.498;2023-05-20T08:15:22;97448.75;;;17.72;75.69
57442;BME280;43284;47.042;15.498;2023-05-20T08:17:47;97455.28;;;17.79;76.30
57442;BME280;43284;47.042;15.498;2023-05-20T08:20:13;97442.47;;;17.86;75.64
57442;BME280;43284;47.042;15.498;2023-05-20T08:22:39;97438.31;;;17.95;75.83
57442;BME280;43284;47.042;15.498;2023-05-20T08:25:07;97435.31;;;17.99;75.45
57442;BME280;43284;47.042;15.498;2023-05-20T08:27:33;97435.84;;;18.04;74.59
57442;BME280;43284;47.042;15.498;2023-05-20T08:29:58;97432.41;;;18.15;75.09
57442;BME280;43284;47.042;15.498;2023-05-20T08:32:24;97430.28;;;18.31;75.77
57442;BME280;43284;47.042;15.498;2023-05-20T08:34:49;97431.84;;;18.45;73.40
57442;BME280;43284;47.042;15.498;2023-05-20T08:37:15;97423.34;;;18.53;70.34
57442;BME280;43284;47.042;15.498;2023-05-20T08:39:41;97412.41;;;18.58;70.52
57442;BME280;43284;47.042;15.498;2023-05-20T08:42:07;97416.13;;;18.55;70.89
57442;BME280;43284;47.042;15.498;2023-05-20T08:44:35;97405.06;;;18.61;70.59
57442;BME280;43284;47.042;15.498;2023-05-20T08:47:02;97406.16;;;18.59;72.31
57442;BME280;43284;47.042;15.498;2023-05-20T08:49:28;97408.56;;;18.62;73.67
57442;BME280;43284;47.042;15.498;2023-05-20T08:51:53;97410.84;;;18.66;73.31
57442;BME280;43284;47.042;15.498;2023-05-20T08:54:20;97398.34;;;18.68;72.32
57442;BME280;43284;47.042;15.498;2023-05-20T08:56:48;97396.31;;;18.72;70.64
57442;BME280;43284;47.042;15.498;2023-05-20T08:59:14;97395.00;;;18.89;73.04
57442;BME280;43284;47.042;15.498;2023-05-20T09:01:41;97396.94;;;19.09;72.67
57442;BME280;43284;47.042;15.498;2023-05-20T09:04:09;97389.31;;;19.27;72.59
57442;BME280;43284;47.042;15.498;2023-05-20T09:06:45;97386.13;;;19.45;72.44
57442;BME280;43284;47.042;15.498;2023-05-20T09:09:14;97391.19;;;19.48;67.22
57442;BME280;43284;47.042;15.498;2023-05-20T09:11:40;97391.41;;;19.56;67.13
57442;BME280;43284;47.042;15.498;2023-05-20T09:14:07;97389.72;;;19.55;67.40
57442;BME280;43284;47.042;15.498;2023-05-20T09:16:33;97385.16;;;19.57;67.02
57442;BME280;43284;47.042;15.498;2023-05-20T09:18:58;97390.06;;;19.62;69.91
57442;BME280;43284;47.042;15.498;2023-05-20T09:21:27;97375.09;;;19.72;69.02
57442;BME280;43284;47.042;15.498;2023-05-20T09:23:53;97382.31;;;19.81;68.95
57442;BME280;43284;47.042;15.498;2023-05-20T09:26:22;97378.25;;;19.98;65.56
57442;BME280;43284;47.042;15.498;2023-05-20T09:28:49;97376.25;;;20.11;66.39
57442;BME280;43284;47.042;15.498;2023-05-20T09:31:15;97374.31;;;20.34;63.94
57442;BME280;43284;47.042;15.498;2023-05-20T09:33:41;97374.38;;;20.44;63.23
57442;BME280;43284;47.042;15.498;2023-05-20T09:36:07;97370.09;;;20.53;62.53
57442;BME280;43284;47.042;15.498;2023-05-20T09:38:36;97375.97;;;20.56;61.14
57442;BME280;43284;47.042;15.498;2023-05-20T09:41:06;97365.31;;;20.47;58.86
57442;BME280;43284;47.042;15.498;2023-05-20T09:43:33;97361.56;;;20.49;60.61
57442;BME280;43284;47.042;15.498;2023-05-20T09:45:59;97363.81;;;20.54;60.78
57442;BME280;43284;47.042;15.498;2023-05-20T09:48:26;97369.47;;;20.61;62.18
57442;BME280;43284;47.042;15.498;2023-05-20T09:50:53;97368.44;;;20.83;64.77
57442;BME280;43284;47.042;15.498;2023-05-20T09:53:19;97356.66;;;21.06;60.41
57442;BME280;43284;47.042;15.498;2023-05-20T09:55:46;97355.53;;;21.18;58.52
57442;BME280;43284;47.042;15.498;2023-05-20T09:58:12;97361.06;;;21.36;58.74
57442;BME280;43284;47.042;15.498;2023-05-20T10:00:38;97358.84;;;21.42;54.71
57442;BME280;43284;47.042;15.498;2023-05-20T10:03:04;97358.31;;;21.48;58.45
57442;BME280;43284;47.042;15.498;2023-05-20T10:05:34;97345.72;;;21.50;55.92
57442;BME280;43284;47.042;15.498;2023-05-20T10:11:20;97340.41;;;21.79;55.11
57442;BME280;43284;47.042;15.498;2023-05-20T10:19:32;97332.25;;;22.29;51.09
57442;BME280;43284;47.042;15.498;2023-05-20T10:22:08;97335.88;;;22.38;51.32
57442;BME280;43284;47.042;15.498;2023-05-20T10:24:35;97348.09;;;22.31;52.31
57442;BME280;43284;47.042;15.498;2023-05-20T10:27:04;97344.44;;;22.32;52.61
57442;BME280;43284;47.042;15.498;2023-05-20T10:29:51;97334.34;;;22.16;52.90
57442;BME280;43284;47.042;15.498;2023-05-20T10:32:27;97339.25;;;22.01;52.93
57442;BME280;43284;47.042;15.498;2023-05-20T10:35:04;97339.69;;;21.96;53.31
57442;BME280;43284;47.042;15.498;2023-05-20T10:37:43;97334.06;;;21.99;56.87
57442;BME280;43284;47.042;15.498;2023-05-20T10:40:14;97337.00;;;22.16;53.30
57442;BME280;43284;47.042;15.498;2023-05-20T10:42:42;97334.66;;;22.13;54.66
57442;BME280;43284;47.042;15.498;2023-05-20T10:45:08;97333.09;;;22.20;52.87
57442;BME280;43284;47.042;15.498;2023-05-20T10:47:35;97340.22;;;22.29;54.02
57442;BME280;43284;47.042;15.498;2023-05-20T10:50:01;97333.06;;;22.39;53.63
57442;BME280;43284;47.042;15.498;2023-05-20T10:52:32;97342.28;;;22.45;52.88
57442;BME280;43284;47.042;15.498;2023-05-20T10:54:59;97338.09;;;22.52;52.51
57442;BME280;43284;47.042;15.498;2023-05-20T10:57:26;97332.84;;;22.60;51.62
57442;BME280;43284;47.042;15.498;2023-05-20T10:59:52;97332.56;;;22.63;52.32
57442;BME280;43284;47.042;15.498;2023-05-20T11:02:19;97329.91;;;22.63;50.33
57442;BME280;43284;47.042;15.498;2023-05-20T11:04:56;97329.66;;;22.84;52.77
57442;BME280;43284;47.042;15.498;2023-05-20T11:07:29;97333.00;;;22.96;53.12
57442;BME280;43284;47.042;15.498;2023-05-20T11:09:58;97333.13;;;22.95;51.14
57442;BME280;43284;47.042;15.498;2023-05-20T11:12:24;97329.84;;;22.83;50.68
57442;BME280;43284;47.042;15.498;2023-05-20T11:14:50;97326.06;;;22.76;52.97
57442;BME280;43284;47.042;15.498;2023-05-20T11:17:17;97314.94;;;22.80;51.35
57442;BME280;43284;47.042;15.498;2023-05-20T11:19:43;97318.03;;;22.86;52.20
57442;BME280;43284;47.042;15.498;2023-05-20T11:22:09;97316.19;;;22.86;51.08
57442;BME280;43284;47.042;15.498;2023-05-20T11:24:35;97314.47;;;22.95;52.17
57442;BME280;43284;47.042;15.498;2023-05-20T11:27:01;97305.09;;;23.18;52.92
57442;BME280;43284;47.042;15.498;2023-05-20T11:29:27;97300.94;;;23.34;52.20
57442;BME280;43284;47.042;15.498;2023-05-20T11:31:59;97291.31;;;23.59;50.81
57442;BME280;43284;47.042;15.498;2023-05-20T11:34:31;97285.31;;;23.75;49.44
57442;BME280;43284;47.042;15.498;2023-05-20T11:36:57;97289.78;;;23.74;50.00
57442;BME280;43284;47.042;15.498;2023-05-20T11:39:23;97288.38;;;23.80;48.96
57442;BME280;43284;47.042;15.498;2023-05-20T11:41:49;97288.25;;;23.72;49.46
57442;BME280;43284;47.042;15.498;2023-05-20T11:44:15;97289.88;;;23.82;50.42
57442;BME280;43284;47.042;15.498;2023-05-20T11:46:42;97280.88;;;23.65;47.56
57442;BME280;43284;47.042;15.498;2023-05-20T11:49:08;97279.75;;;23.68;48.31
57442;BME280;43284;47.042;15.498;2023-05-20T11:51:34;97286.16;;;23.75;47.87
57442;BME280;43284;47.042;15.498;2023-05-20T11:54:04;97285.94;;;23.87;49.04
57442;BME280;43284;47.042;15.498;2023-05-20T11:56:34;97292.50;;;23.92;50.13
57442;BME280;43284;47.042;15.498;2023-05-20T11:59:02;97279.44;;;23.89;47.89
57442;BME280;43284;47.042;15.498;2023-05-20T12:01:33;97277.56;;;23.81;48.92
57442;BME280;43284;47.042;15.498;2023-05-20T12:04:03;97282.94;;;23.72;47.21
57442;BME280;43284;47.042;15.498;2023-05-20T12:06:29;97278.66;;;23.61;49.46
57442;BME280;43284;47.042;15.498;2023-05-20T12:08:55;97271.34;;;23.63;45.65
57442;BME280;43284;47.042;15.498;2023-05-20T12:11:21;97284.47;;;23.38;49.54
57442;BME280;43284;47.042;15.498;2023-05-20T12:13:46;97281.88;;;23.29;50.90
57442;BME280;43284;47.042;15.498;2023-05-20T12:16:12;97285.22;;;23.31;51.00
57442;BME280;43284;47.042;15.498;2023-05-20T12:18:38;97285.84;;;23.24;50.68
57442;BME280;43284;47.042;15.498;2023-05-20T12:21:03;97283.19;;;23.24;49.68
57442;BME280;43284;47.042;15.498;2023-05-20T12:23:29;97283.16;;;22.97;50.51
57442;BME280;43284;47.042;15.498;2023-05-20T12:25:58;97280.19;;;23.28;50.23
57442;BME280;43284;47.042;15.498;2023-05-20T12:28:23;97284.47;;;23.38;50.90
57442;BME280;43284;47.042;15.498;2023-05-20T12:30:49;97286.59;;;23.35;50.23
57442;BME280;43284;47.042;15.498;2023-05-20T12:33:14;97285.16;;;23.40;49.83
57442;BME280;43284;47.042;15.498;2023-05-20T12:35:41;97282.41;;;23.32;49.51
57442;BME280;43284;47.042;15.498;2023-05-20T12:38:08;97272.28;;;23.36;47.20
57442;BME280;43284;47.042;15.498;2023-05-20T12:40:34;97271.22;;;23.47;48.31
57442;BME280;43284;47.042;15.498;2023-05-20T12:43:01;97268.00;;;23.43;48.44
57442;BME280;43284;47.042;15.498;2023-05-20T12:45:26;97257.31;;;23.43;48.47
57442;BME280;43284;47.042;15.498;2023-05-20T12:47:53;97256.03;;;23.47;47.54
57442;BME280;43284;47.042;15.498;2023-05-20T12:50:19;97260.31;;;23.58;48.95
57442;BME280;43284;47.042;15.498;2023-05-20T12:52:45;97256.16;;;23.63;49.77